Create Tblcommutelog Verified Points Advance Search
| # | Trip ID | Id Commuter | Trip Date | Trip Num | Current Lat | Current Lng | Delta Distance | Current Time | Activity | Activity Confidence | Current Speed | |
|---|---|---|---|---|---|---|---|---|---|---|---|---|
| 73701 | 260319_789990_16503560_0923 | 789990 | (not set) | (not set) | 38.924679754884 | -77.052448193991 | 5.0058 | 2026-03-19 10:12:21 | unknown | 100 | -0.44703925898772 | |
| 73702 | 260319_790203_6461772_0914 | 790203 | (not set) | (not set) | 38.949827154375 | -77.005173010263 | 22.5742 | 2026-03-19 10:13:22 | in_vehicle | 100 | -0.44703925898772 | |
| 73703 | 260319_790203_6461772_0914 | 790203 | (not set) | (not set) | 38.93689931821 | -77.024142435137 | 24.118 | 2026-03-19 10:13:23 | in_vehicle | 100 | -0.44703925898772 | |
| 73704 | 260319_789990_16503560_0923 | 789990 | (not set) | (not set) | 38.924674722034 | -77.052444450115 | 5.0058 | 2026-03-19 10:13:53 | unknown | 100 | -0.44703925898772 | |
| 73705 | 260319_789990_16503560_0923 | 789990 | (not set) | (not set) | 38.91092951349 | -77.044613194662 | 5.0058 | 2026-03-19 10:13:53 | unknown | 100 | -0.44703925898772 | |
| 73706 | 260319_789990_16503560_0923 | 789990 | (not set) | (not set) | 38.910768135963 | -77.044508708955 | 5.0058 | 2026-03-19 10:14:08 | unknown | 100 | -0.44703925898772 | |
| 73707 | 260319_789990_16503560_0923 | 789990 | (not set) | (not set) | 38.910641394294 | -77.04444559899 | 6.0658 | 2026-03-19 10:14:14 | unknown | 100 | -0.44703925898772 | |
| 73708 | 260319_790203_6461772_0914 | 790203 | (not set) | (not set) | 38.936947330164 | -77.024201322343 | 24.118 | 2026-03-19 10:14:40 | in_vehicle | 100 | -0.44703925898772 | |
| 73709 | 260319_790203_6461772_0914 | 790203 | (not set) | (not set) | 38.936947330164 | -77.024201322343 | 24.118 | 2026-03-19 10:14:40 | in_vehicle | 100 | -0.44703925898772 | |
| 73710 | 260319_790203_6461772_0914 | 790203 | (not set) | (not set) | 38.936947306659 | -77.024201353464 | 24.118 | 2026-03-19 10:14:40 | in_vehicle | 100 | -0.44703925898772 | |
| 73711 | 260319_790203_6461772_0914 | 790203 | (not set) | (not set) | 38.93784330609 | -77.022883053558 | 24.118 | 2026-03-19 10:15:52 | still | 33 | -0.44703925898772 | |
| 73712 | 260319_790203_6461772_0914 | 790203 | (not set) | (not set) | 38.938796402988 | -77.021483549236 | 24.118 | 2026-03-19 10:16:04 | in_vehicle | 100 | -0.44703925898772 | |
| 73713 | 260319_790203_6461772_0914 | 790203 | (not set) | (not set) | 38.928701232462 | -77.032933250447 | 24.8557 | 2026-03-19 10:16:31 | still | 33 | -0.44703925898772 | |
| 73714 | 260319_789990_16503560_0923 | 789990 | (not set) | (not set) | 38.910388179006 | -77.044309673187 | 6.0658 | 2026-03-19 10:17:00 | unknown | 100 | -0.44703925898772 | |
| 73715 | 260319_789990_16503560_0923 | 789990 | (not set) | (not set) | 38.910138216562 | -77.044158047078 | 6.0658 | 2026-03-19 10:17:00 | unknown | 100 | -0.44703925898772 | |
| 73716 | 260319_790203_6461772_0914 | 790203 | (not set) | (not set) | 38.928685591642 | -77.032944907722 | 24.8557 | 2026-03-19 10:17:10 | in_vehicle | 100 | -0.44703925898772 | |
| 73717 | 260319_790203_6461772_0914 | 790203 | (not set) | (not set) | 38.928685591642 | -77.032944907722 | 24.8557 | 2026-03-19 10:17:11 | in_vehicle | 100 | -0.44703925898772 | |
| 73718 | 260319_790203_6461772_0914 | 790203 | (not set) | (not set) | 38.928685591642 | -77.032944907722 | 24.8557 | 2026-03-19 10:17:11 | in_vehicle | 100 | -0.44703925898772 | |
| 73719 | 260319_790203_6461772_0914 | 790203 | (not set) | (not set) | 38.925048718952 | -77.030852066205 | 24.8557 | 2026-03-19 10:17:45 | in_vehicle | 100 | -0.44703925898772 | |
| 73720 | 260319_790203_6461772_0914 | 790203 | (not set) | (not set) | 38.920857256428 | -77.028453688406 | 24.8557 | 2026-03-19 10:17:45 | in_vehicle | 100 | -0.44703925898772 |